This is the latest recevied weather packets stored in our database for station/object K3HW. If no packets are shown the sender has not sent any weather packets the latest 10 day(s).
| Time | Temp. | Humidity | Pressure | Rain* | Wind** | Luminosity | Snow |
|---|---|---|---|---|---|---|---|
| 1777310602 | 20° C | 44% | 1027.6 hPa | 0 mm | - | 146 W/m² | - |
| 1777310300 | 20° C | 43% | 1027.5 hPa | 0 mm | - | 558 W/m² | - |
| 1777309996 | 20° C | 47% | 1027.5 hPa | 0 mm | - | 542 W/m² | - |
| 1777309694 | 20° C | 46% | 1027.7 hPa | 0 mm | - | 773 W/m² | - |
| 1777309391 | 20° C | 50% | 1027.7 hPa | 0 mm | - | 758 W/m² | - |
| 1777309089 | 20° C | 47% | 1027.6 hPa | 0 mm | - | 702 W/m² | - |
| 1777308786 | 19.44° C | 49% | 1027.8 hPa | 0 mm | - | 718 W/m² | - |
| 1777308481 | 19.44° C | 46% | 1027.8 hPa | 0 mm | - | 497 W/m² | - |
| 1777308177 | 20° C | 46% | 1027.6 hPa | 0 mm | - | 478 W/m² | - |
| 1777307873 | 18.89° C | 51% | 1027.8 hPa | 0 mm | - | 641 W/m² | - |
| 1777307572 | 19.44° C | 47% | 1027.6 hPa | 0 mm | - | 174 W/m² | - |
| 1777307268 | 19.44° C | 51% | 1027.7 hPa | 0 mm | - | 760 W/m² | - |
| 1777306965 | 18.89° C | 47% | 1027.9 hPa | 0 mm | - | 756 W/m² | - |
| 1777306663 | 18.89° C | 51% | 1027.7 hPa | 0 mm | - | 748 W/m² | - |
| 1777306359 | 19.44° C | 50% | 1027.6 hPa | 0 mm | - | 749 W/m² | - |
| 1777306048 | 18.89° C | 49% | 1027.7 hPa | 0 mm | - | 749 W/m² | - |
| 1777305745 | 18.89° C | 52% | 1027.6 hPa | 0 mm | - | 743 W/m² | - |
| 1777305441 | 18.89° C | 52% | 1027.8 hPa | 0 mm | - | 728 W/m² | - |
| 1777305141 | 18.89° C | 51% | 1027.8 hPa | 0 mm | - | 727 W/m² | - |
| 1777304836 | 18.89° C | 55% | 1027.8 hPa | 0 mm | - | 722 W/m² | - |
| 1777304533 | 18.33° C | 56% | 1027.7 hPa | 0 mm | - | 708 W/m² | - |
| 1777304230 | 18.33° C | 53% | 1027.7 hPa | 0 mm | - | 707 W/m² | - |
| 1777303928 | 18.33° C | 54% | 1027.8 hPa | 0 mm | - | 702 W/m² | - |
| 1777303624 | 18.33° C | 56% | 1027.8 hPa | 0 mm | - | 691 W/m² | - |
| 1777303322 | 17.78° C | 56% | 1027.9 hPa | 0 mm | - | 682 W/m² | - |
* Rain latest hour (hover to see other rain measurements)
** Current wind speed in m/s (hover to see current wind gust speed)